»·PEaware :: SKY206 KHLN-KLVM

SKY206 :: KHLN-KLVM

FLIGHT INFORMATION

Flight Status: Arrived
Operator:
Sky High Charters
More flights by this operator :: More flights under this callsign
Pilot: Nick L. (7253)
Aircraft: BEECH AIRCRAFT SUPER KING AIR 350
(B350)
More flights by this aircraft type
Origin: KHLN Helena Regl
United States
Destination: KLVM Mission
United States
More flights between these airports :: More routes between these airports
Route: STAKK4 CONNS V2 LVM
File this flight plan on PilotEdge
Remarks:
Altitude:
(Current/Filed)
11,000ft
Speed:
(Current/Filed)
250kts
Departed: 05-Mar-21 02:36 PM
Arrived: 05-Mar-21 03:13 PM
Distance/Time
Traveled:
84nm/0:37
Distance/Time
To Go:
Arrived

Flight Plot

Page will automatically refresh every two minutes.

Flight plan parsing failed; only flown route is shown


Map Options




Map Legend


Flown Route
Filed Route
Departure Airport
Arrival Airport
Navaid (VOR, NDB)
Fix

Horizontal Profiles

Position Reports

Time Latitude Longitude Heading Altitude Ground
Speed
05-Mar-21 14:24 46.602524 -111.984717 357 3863ft 0kts
05-Mar-21 14:25 46.602524 -111.984717 357 3863ft 0kts
05-Mar-21 14:26 46.602524 -111.984717 357 3863ft 0kts
05-Mar-21 14:27 46.602524 -111.984717 357 3863ft 0kts
05-Mar-21 14:28 46.602524 -111.984717 357 3863ft 0kts
05-Mar-21 14:29 46.602524 -111.984717 357 3863ft 0kts
05-Mar-21 14:30 46.602524 -111.984717 357 3863ft 0kts
05-Mar-21 14:31 46.603167 -111.984761 358 3863ft 0kts
05-Mar-21 14:32 46.603522 -111.984193 84 3861ft 13kts
05-Mar-21 14:33 46.603632 -111.978895 98 3859ft 9kts
05-Mar-21 14:34 46.603155 -111.972691 98 3854ft 23kts
05-Mar-21 14:35 46.602021 -111.963468 53 3846ft 8kts
05-Mar-21 14:36 46.605236 -111.977837 283 3980ft 124kts
05-Mar-21 14:37 46.625181 -112.015501 21 6074ft 155kts
05-Mar-21 14:38 46.616260 -111.961417 146 8152ft 182kts
05-Mar-21 14:39 46.595992 -111.888522 103 9056ft 222kts
05-Mar-21 14:40 46.581566 -111.796405 103 9061ft 247kts
05-Mar-21 14:41 46.565818 -111.699405 103 9052ft 276kts
05-Mar-21 14:42 46.526770 -111.615488 180 9051ft 261kts
05-Mar-21 14:43 46.464586 -111.585675 125 9980ft 251kts
05-Mar-21 14:44 46.430872 -111.497717 123 11075ft 269kts
05-Mar-21 14:44 46.398475 -111.414567 122 11079ft 295kts
05-Mar-21 14:45 46.357376 -111.309466 123 11077ft 297kts
05-Mar-21 14:47 46.310246 -111.189175 123 11015ft 295kts
05-Mar-21 14:47 46.276505 -111.103640 125 11015ft 293kts
05-Mar-21 14:48 46.218698 -111.024942 146 11016ft 285kts
05-Mar-21 14:50 46.145694 -110.942604 144 11017ft 286kts
05-Mar-21 14:51 46.083741 -110.870969 144 11017ft 286kts
05-Mar-21 14:51 46.031635 -110.811866 145 11011ft 286kts
05-Mar-21 14:52 45.969142 -110.741209 145 11002ft 285kts
05-Mar-21 14:54 45.896635 -110.659475 145 10993ft 283kts
05-Mar-21 14:54 45.845470 -110.601846 145 10976ft 268kts
05-Mar-21 14:55 45.798039 -110.548352 147 10980ft 218kts
05-Mar-21 14:56 45.752604 -110.497726 147 10990ft 209kts
05-Mar-21 14:57 45.714900 -110.435947 103 10997ft 223kts
05-Mar-21 14:58 45.734191 -110.351656 62 10994ft 230kts
05-Mar-21 14:59 45.763134 -110.269358 63 10988ft 231kts
05-Mar-21 15:00 45.791893 -110.186696 63 10988ft 232kts
05-Mar-21 15:01 45.804606 -110.103544 91 10324ft 215kts
05-Mar-21 15:02 45.806208 -110.015827 91 9561ft 225kts
05-Mar-21 15:03 45.840172 -109.962199 332 9001ft 212kts
05-Mar-21 15:04 45.849384 -110.024385 241 8993ft 172kts
05-Mar-21 15:05 45.827270 -110.085525 241 9001ft 179kts
05-Mar-21 15:06 45.803305 -110.153177 241 8815ft 206kts
05-Mar-21 15:07 45.778080 -110.226715 242 7380ft 201kts
05-Mar-21 15:08 45.754512 -110.294793 240 6863ft 177kts
05-Mar-21 15:09 45.732464 -110.357631 241 5904ft 180kts
05-Mar-21 15:10 45.715011 -110.411982 230 5188ft 128kts
05-Mar-21 15:11 45.697691 -110.446248 237 4653ft 57kts
05-Mar-21 15:12 45.696768 -110.453192 258 4651ft 6kts
05-Mar-21 15:13 45.696693 -110.453278 58 4651ft 0kts
05-Mar-21 15:14 45.696693 -110.453278 58 4651ft 0kts
05-Mar-21 15:15 45.696693 -110.453278 58 4651ft 0kts
05-Mar-21 15:16 45.696693 -110.453278 58 4651ft 0kts
05-Mar-21 15:17 45.696693 -110.453278 58 4651ft 0kts
05-Mar-21 15:18 45.696693 -110.453278 58 4651ft 0kts
05-Mar-21 15:19 45.696693 -110.453278 58 4651ft 0kts
05-Mar-21 15:20 45.696693 -110.453278 58 4651ft 0kts
05-Mar-21 15:21 45.696693 -110.453278 58 4651ft 0kts
05-Mar-21 15:22 45.696693 -110.453278 58 4651ft 0kts
05-Mar-21 15:23 45.696693 -110.453278 58 4651ft 0kts

Navigation Log

Ident Type
Flight plan parsing failed, navigation log unavailable